createdAt,value
2019-02-05T00:01:57.968Z,115.30
2019-02-05T00:04:27.170Z,151.43
2019-02-05T00:06:56.352Z,139.17
2019-02-05T00:09:25.696Z,248.90
2019-02-05T00:11:54.888Z,195.33
2019-02-05T00:14:24.456Z,94.27
2019-02-05T00:16:53.648Z,94.90
2019-02-05T00:19:22.849Z,75.20
2019-02-05T00:21:52.097Z,68.60
2019-02-05T00:24:21.315Z,70.03
2019-02-05T00:26:50.599Z,65.07
2019-02-05T00:29:20.056Z,60.80
2019-02-05T00:31:49.274Z,60.47
2019-02-05T00:34:18.453Z,81.03
2019-02-05T00:36:47.728Z,87.80
2019-02-05T00:39:16.919Z,84.20
2019-02-05T00:41:46.115Z,75.77
2019-02-05T00:44:15.705Z,70.97
2019-02-05T00:46:44.929Z,90.27
2019-02-05T00:49:14.199Z,73.13
2019-02-05T00:51:43.481Z,73.37
2019-02-05T00:54:12.665Z,82.57
2019-02-05T00:56:41.876Z,85.73
2019-02-05T00:59:11.355Z,72.73
2019-02-05T01:01:40.550Z,99.57
2019-02-05T01:04:09.829Z,100.13
2019-02-05T01:06:39.132Z,138.73
2019-02-05T01:09:10.223Z,120.70
2019-02-05T01:11:39.601Z,107.57
2019-02-05T01:14:08.879Z,112.00
2019-02-05T01:16:38.144Z,105.10
2019-02-05T01:19:07.603Z,112.00
2019-02-05T01:21:36.781Z,115.03
2019-02-05T01:24:06.161Z,102.63
2019-02-05T01:26:35.346Z,96.63
2019-02-05T01:29:04.555Z,106.03
2019-02-05T01:31:33.822Z,98.50
2019-02-05T01:34:03.037Z,88.23
2019-02-05T01:36:32.221Z,93.57
2019-02-05T01:39:01.438Z,84.53
2019-02-05T01:41:30.773Z,87.93
2019-02-05T01:44:00.061Z,84.80
2019-02-05T01:46:29.252Z,74.57
2019-02-05T01:48:58.544Z,83.73
2019-02-05T01:51:27.807Z,60.17
2019-02-05T01:53:57.084Z,87.20
2019-02-05T01:56:26.272Z,75.77
2019-02-05T01:58:55.502Z,80.70
2019-02-05T02:01:24.807Z,68.10
2019-02-05T02:03:54.081Z,65.30
2019-02-05T02:06:23.272Z,61.70
2019-02-05T02:08:52.964Z,60.90
2019-02-05T02:11:22.161Z,57.47
2019-02-05T02:13:51.484Z,52.00
2019-02-05T02:16:20.660Z,48.00
2019-02-05T02:18:49.908Z,55.67
2019-02-05T02:21:19.188Z,49.90
2019-02-05T02:23:48.449Z,50.00
2019-02-05T02:26:17.664Z,44.33
2019-02-05T02:28:46.859Z,47.07
2019-02-05T02:31:16.134Z,49.63
2019-02-05T02:33:45.616Z,48.83
2019-02-05T02:36:14.832Z,48.33
2019-02-05T02:38:44.188Z,48.87
2019-02-05T02:41:13.385Z,47.77
2019-02-05T02:43:42.582Z,47.77
2019-02-05T02:46:11.862Z,48.27
2019-02-05T02:48:41.253Z,42.77
2019-02-05T02:51:10.509Z,43.60
2019-02-05T02:53:39.974Z,48.23
2019-02-05T02:56:09.289Z,52.03
2019-02-05T02:58:38.641Z,45.13
2019-02-05T03:01:07.940Z,52.90
2019-02-05T03:03:37.116Z,45.40
2019-02-05T03:06:06.388Z,46.23
2019-02-05T03:08:35.592Z,48.67
2019-02-05T03:11:05.429Z,46.03
2019-02-05T03:13:35.094Z,47.50
2019-02-05T03:16:04.848Z,43.80
2019-02-05T03:18:34.129Z,44.57
2019-02-05T03:21:03.472Z,44.03
2019-02-05T03:23:32.773Z,44.23
2019-02-05T03:26:02.115Z,46.37
2019-02-05T03:28:34.705Z,49.13
2019-02-05T03:31:04.230Z,43.10
2019-02-05T03:33:33.586Z,41.80
2019-02-05T03:36:02.929Z,50.20
2019-02-05T03:38:32.129Z,42.97
2019-02-05T03:41:05.724Z,43.07
2019-02-05T03:43:36.316Z,47.70
2019-02-05T03:46:07.536Z,39.43
2019-02-05T03:48:37.754Z,49.90
2019-02-05T03:51:23.583Z,44.60
2019-02-05T03:53:58.781Z,50.60
2019-02-05T03:57:12.659Z,52.97
2019-02-05T04:00:15.104Z,49.07
2019-02-05T04:03:23.077Z,52.20
2019-02-05T04:06:17.859Z,57.03
2019-02-05T04:09:16.769Z,61.97
2019-02-05T04:12:14.269Z,65.07
2019-02-05T04:15:13.606Z,64.20
2019-02-05T04:18:16.153Z,66.03
2019-02-05T04:21:25.552Z,62.63
2019-02-05T04:24:37.805Z,61.23
2019-02-05T04:27:43.634Z,61.10
2019-02-05T04:30:50.509Z,61.93
2019-02-05T04:34:03.157Z,56.87
2019-02-05T04:37:20.904Z,61.47
2019-02-05T04:40:26.838Z,63.20
2019-02-05T04:43:37.148Z,57.07
2019-02-05T04:46:38.824Z,57.20
2019-02-05T04:50:01.303Z,56.37
2019-02-05T04:53:05.002Z,60.43
2019-02-05T04:56:09.225Z,62.10
2019-02-05T04:59:00.505Z,57.73
2019-02-05T05:02:06.821Z,51.90
2019-02-05T05:04:56.003Z,56.23
2019-02-05T05:07:50.410Z,52.30
2019-02-05T05:10:19.689Z,55.50
2019-02-05T05:12:48.945Z,62.43
2019-02-05T05:15:18.415Z,62.47
2019-02-05T05:17:47.698Z,59.77
2019-02-05T05:20:16.969Z,60.63
2019-02-05T05:22:46.661Z,58.23
2019-02-05T05:25:16.007Z,60.40
2019-02-05T05:27:45.361Z,63.13
2019-02-05T05:30:19.215Z,65.07
2019-02-05T05:32:49.289Z,63.03
2019-02-05T05:35:18.488Z,64.97
2019-02-05T05:37:48.192Z,63.83
2019-02-05T05:40:17.460Z,65.27
2019-02-05T05:42:46.724Z,58.00
2019-02-05T05:45:16.483Z,53.00
2019-02-05T05:47:45.677Z,59.97
2019-02-05T05:50:15.995Z,50.17
2019-02-05T05:52:45.283Z,49.63
2019-02-05T05:55:14.531Z,51.50
2019-02-05T05:57:43.900Z,58.10
2019-02-05T06:00:16.667Z,58.57
2019-02-05T06:02:45.964Z,69.47
2019-02-05T06:05:17.331Z,67.00
2019-02-05T06:07:46.595Z,66.90
2019-02-05T06:10:16.645Z,64.00
2019-02-05T06:12:45.932Z,68.73
2019-02-05T06:15:15.337Z,64.37
2019-02-05T06:17:44.607Z,66.60
2019-02-05T06:20:16.602Z,65.57
2019-02-05T06:22:45.881Z,62.87
2019-02-05T06:25:15.485Z,59.27
2019-02-05T06:27:44.749Z,57.87
2019-02-05T06:30:15.361Z,56.20
2019-02-05T06:32:44.724Z,111.00
2019-02-05T06:35:14.100Z,67.87
2019-02-05T06:37:43.577Z,56.97
2019-02-05T06:40:15.193Z,55.87
2019-02-05T06:42:44.524Z,55.00
2019-02-05T06:45:14.603Z,55.70
2019-02-05T06:47:43.882Z,56.97
2019-02-05T06:50:13.512Z,56.43
2019-02-05T06:52:43.137Z,57.73
2019-02-05T06:55:13.144Z,64.13
2019-02-05T06:57:42.418Z,59.73
2019-02-05T07:00:18.073Z,56.97
2019-02-05T07:02:47.520Z,64.57
2019-02-05T07:05:16.996Z,67.80
2019-02-05T07:07:46.160Z,62.67
2019-02-05T07:10:17.985Z,62.17
2019-02-05T07:12:47.157Z,71.43
2019-02-05T07:15:16.457Z,66.80
2019-02-05T07:17:49.975Z,58.80
2019-02-05T07:20:17.000Z,60.17
2019-02-05T07:22:46.272Z,57.73
2019-02-05T07:25:17.177Z,60.00
2019-02-05T07:27:46.369Z,51.17
2019-02-05T07:30:20.704Z,44.83
2019-02-05T07:32:49.962Z,49.20
2019-02-05T07:35:19.233Z,50.20
2019-02-05T07:37:48.537Z,92.37
2019-02-05T07:40:19.165Z,103.23
2019-02-05T07:42:48.395Z,68.80
2019-02-05T07:45:19.197Z,45.93
2019-02-05T07:47:48.465Z,45.43
2019-02-05T07:50:23.171Z,42.63
2019-02-05T07:52:52.600Z,42.77
2019-02-05T07:55:22.321Z,50.20
2019-02-05T07:57:51.579Z,42.47
2019-02-05T08:00:23.585Z,47.30
2019-02-05T08:02:52.911Z,44.40
2019-02-05T08:05:28.021Z,46.27
2019-02-05T08:07:57.483Z,41.70
2019-02-05T08:10:26.866Z,40.30
2019-02-05T08:12:56.245Z,46.73
2019-02-05T08:15:28.197Z,42.87
2019-02-05T08:17:57.661Z,50.63
2019-02-05T08:20:27.440Z,53.40
2019-02-05T08:22:56.854Z,42.60
2019-02-05T08:25:26.111Z,45.33
2019-02-05T08:27:55.651Z,51.40
2019-02-05T08:30:30.492Z,48.70
2019-02-05T08:32:59.781Z,43.47
2019-02-05T08:35:29.121Z,50.30
2019-02-05T08:37:58.385Z,43.30
2019-02-05T08:40:27.637Z,44.23
2019-02-05T08:42:56.920Z,40.13
2019-02-05T08:45:28.421Z,48.47
2019-02-05T08:47:57.697Z,44.73
2019-02-05T08:50:27.867Z,50.17
2019-02-05T08:52:57.187Z,55.23
2019-02-05T08:55:26.447Z,47.00
2019-02-05T08:57:57.901Z,49.20
2019-02-05T09:00:29.939Z,57.47
2019-02-05T09:02:59.397Z,49.20
2019-02-05T09:05:28.643Z,56.73
2019-02-05T09:07:58.117Z,48.93
2019-02-05T09:10:32.019Z,54.67
2019-02-05T09:13:01.346Z,51.70
2019-02-05T09:15:31.003Z,49.13
2019-02-05T09:18:00.383Z,50.60
2019-02-05T09:20:30.008Z,50.70
2019-02-05T09:22:59.308Z,48.00
2019-02-05T09:25:28.572Z,48.67
2019-02-05T09:27:57.844Z,45.00
2019-02-05T09:30:29.242Z,50.50
2019-02-05T09:33:00.405Z,49.87
2019-02-05T09:35:29.635Z,53.90
2019-02-05T09:37:58.940Z,54.33
2019-02-05T09:40:30.225Z,55.90
2019-02-05T09:42:59.507Z,59.50
2019-02-05T09:45:30.149Z,53.20
2019-02-05T09:48:00.008Z,52.37
2019-02-05T09:50:30.975Z,53.37
2019-02-05T09:53:00.249Z,51.80
2019-02-05T09:55:29.505Z,50.63
2019-02-05T09:57:58.904Z,48.10
2019-02-05T10:00:30.771Z,47.30
2019-02-05T10:03:00.513Z,50.23
2019-02-05T10:05:30.509Z,50.00
2019-02-05T10:07:59.760Z,44.73
2019-02-05T10:10:29.128Z,43.40
2019-02-05T10:12:58.710Z,45.73
2019-02-05T10:15:30.133Z,48.30
2019-02-05T10:17:59.708Z,38.80
2019-02-05T10:20:29.288Z,40.83
2019-02-05T10:23:01.305Z,45.03
2019-02-05T10:25:30.580Z,46.37
2019-02-05T10:27:59.840Z,47.20
2019-02-05T10:30:31.504Z,48.73
2019-02-05T10:33:02.604Z,45.53
2019-02-05T10:35:31.998Z,39.50
2019-02-05T10:38:01.244Z,38.57
2019-02-05T10:40:30.733Z,45.30
2019-02-05T10:43:00.204Z,44.17
2019-02-05T10:45:29.604Z,42.27
2019-02-05T10:47:58.863Z,40.60
2019-02-05T10:50:28.158Z,42.23
2019-02-05T10:52:57.461Z,43.67
2019-02-05T10:55:26.949Z,39.60
2019-02-05T10:57:56.717Z,37.03
2019-02-05T11:00:28.298Z,45.03
2019-02-05T11:02:59.048Z,40.80
2019-02-05T11:05:29.829Z,66.53
2019-02-05T11:07:59.169Z,47.27
2019-02-05T11:10:28.471Z,40.97
2019-02-05T11:12:57.953Z,45.47
2019-02-05T11:15:29.261Z,42.20
2019-02-05T11:17:58.932Z,43.87
2019-02-05T11:20:29.207Z,39.63
2019-02-05T11:22:58.687Z,40.70
2019-02-05T11:25:27.937Z,45.27
2019-02-05T11:27:57.292Z,40.17
2019-02-05T11:30:29.351Z,38.23
2019-02-05T11:33:17.687Z,38.77
2019-02-05T11:35:47.061Z,36.83
2019-02-05T11:38:16.334Z,42.57
2019-02-05T11:40:46.065Z,59.43
2019-02-05T11:43:15.390Z,42.77
2019-02-05T11:45:44.630Z,37.50
2019-02-05T11:48:17.013Z,40.70
2019-02-05T11:50:46.495Z,39.30
2019-02-05T11:53:15.849Z,40.23
2019-02-05T11:55:45.115Z,72.00
2019-02-05T11:58:15.175Z,48.50
2019-02-05T12:01:00.572Z,47.33
2019-02-05T12:03:29.845Z,41.60
2019-02-05T12:05:59.223Z,41.17
2019-02-05T12:08:28.789Z,44.00
2019-02-05T12:10:58.039Z,44.27
2019-02-05T12:13:27.391Z,43.43
2019-02-05T12:15:56.639Z,44.17
2019-02-05T12:18:26.295Z,43.63
2019-02-05T12:20:55.668Z,45.90
2019-02-05T12:23:26.720Z,46.13
2019-02-05T12:25:55.999Z,44.47
2019-02-05T12:28:25.361Z,45.03
2019-02-05T12:30:54.639Z,47.57
2019-02-05T12:33:23.941Z,47.43
2019-02-05T12:35:53.238Z,41.10
2019-02-05T12:38:22.526Z,46.37
2019-02-05T12:40:51.904Z,46.87
2019-02-05T12:43:21.232Z,47.43
2019-02-05T12:45:54.640Z,45.40
2019-02-05T12:48:23.928Z,47.80
2019-02-05T12:50:53.202Z,47.87
2019-02-05T12:53:22.549Z,45.10
2019-02-05T12:55:51.840Z,47.33
2019-02-05T12:58:21.158Z,51.07
2019-02-05T13:00:58.300Z,44.23
2019-02-05T13:03:23.252Z,47.47
2019-02-05T13:05:52.844Z,47.20
2019-02-05T13:08:22.020Z,45.53
2019-02-05T13:10:52.534Z,49.17
2019-02-05T13:13:21.913Z,42.87
2019-02-05T13:15:51.231Z,47.83
2019-02-05T13:18:22.492Z,48.77
2019-02-05T13:20:51.783Z,43.87
2019-02-05T13:23:21.120Z,40.17
2019-02-05T13:25:50.358Z,38.00
2019-02-05T13:28:19.616Z,41.57
2019-02-05T13:30:48.805Z,37.30
2019-02-05T13:33:18.420Z,39.70
2019-02-05T13:35:47.702Z,40.50
2019-02-05T13:38:16.972Z,44.10
2019-02-05T13:40:46.221Z,42.27
2019-02-05T13:43:15.425Z,36.33
2019-02-05T13:45:45.004Z,37.27
2019-02-05T13:48:14.464Z,39.87
2019-02-05T13:50:43.732Z,38.43
2019-02-05T13:53:13.037Z,37.03
2019-02-05T13:55:45.127Z,40.10
2019-02-05T13:58:15.120Z,37.57
2019-02-05T14:00:46.776Z,39.83
2019-02-05T14:03:35.160Z,43.60
2019-02-05T14:06:04.384Z,40.67
2019-02-05T14:08:33.724Z,40.83
2019-02-05T14:11:03.072Z,41.03
2019-02-05T14:13:32.428Z,38.53
2019-02-05T14:16:01.628Z,38.87
2019-02-05T14:18:30.895Z,38.50
2019-02-05T14:21:00.244Z,34.60
2019-02-05T14:23:29.424Z,37.63
2019-02-05T14:25:59.708Z,37.13
2019-02-05T14:28:29.460Z,36.47
2019-02-05T14:30:59.134Z,37.90
2019-02-05T14:33:30.614Z,39.07
2019-02-05T14:35:59.894Z,42.37
2019-02-05T14:38:48.240Z,38.97
2019-02-05T14:41:29.009Z,39.17
2019-02-05T14:43:58.241Z,37.13
2019-02-05T14:46:27.441Z,40.27
2019-02-05T14:48:57.729Z,35.87
2019-02-05T14:51:27.273Z,43.67
2019-02-05T14:53:56.576Z,33.40
2019-02-05T14:56:25.900Z,41.37
2019-02-05T14:58:55.209Z,37.93
2019-02-05T15:01:24.402Z,37.60
2019-02-05T15:03:53.677Z,35.43
2019-02-05T15:06:23.242Z,38.30
2019-02-05T15:08:52.488Z,38.87
2019-02-05T15:11:21.789Z,38.27
2019-02-05T15:13:51.008Z,37.43
2019-02-05T15:16:20.323Z,48.40
2019-02-05T15:18:49.545Z,40.73
2019-02-05T15:21:19.122Z,48.33
2019-02-05T15:23:48.399Z,53.57
2019-02-05T15:26:17.705Z,42.40
2019-02-05T15:28:47.016Z,40.27
2019-02-05T15:31:16.945Z,42.07
2019-02-05T15:33:50.908Z,36.40
2019-02-05T15:36:42.556Z,40.33
2019-02-05T15:39:14.493Z,43.73
2019-02-05T15:41:43.937Z,38.30
2019-02-05T15:44:13.646Z,38.03
2019-02-05T15:46:43.028Z,44.33
2019-02-05T15:49:12.430Z,38.97
2019-02-05T15:51:41.629Z,37.20
2019-02-05T15:54:10.961Z,41.13
2019-02-05T15:56:40.464Z,43.23
2019-02-05T15:59:10.155Z,41.40
2019-02-05T16:01:39.587Z,40.30
2019-02-05T16:04:28.035Z,37.07
2019-02-05T16:06:57.433Z,34.00
2019-02-05T16:09:26.813Z,38.47
2019-02-05T16:11:56.090Z,42.17
2019-02-05T16:14:25.546Z,39.37
2019-02-05T16:16:54.949Z,42.50
2019-02-05T16:19:24.276Z,42.03
2019-02-05T16:21:53.600Z,40.07
2019-02-05T16:24:23.019Z,43.63
2019-02-05T16:26:52.435Z,37.20
2019-02-05T16:29:21.895Z,40.53
2019-02-05T16:31:51.310Z,38.13
2019-02-05T16:34:20.749Z,39.57
2019-02-05T16:36:50.078Z,39.43
2019-02-05T16:39:19.333Z,40.47
2019-02-05T16:41:48.774Z,42.20
2019-02-05T16:44:18.514Z,40.87
2019-02-05T16:46:47.890Z,39.93
2019-02-05T16:49:18.364Z,43.07
2019-02-05T16:51:47.834Z,42.20
2019-02-05T16:54:17.300Z,48.20
2019-02-05T16:56:46.702Z,44.13
2019-02-05T16:59:15.980Z,47.73
2019-02-05T17:01:47.639Z,47.93
2019-02-05T17:04:17.266Z,50.93
2019-02-05T17:06:46.718Z,45.13
2019-02-05T17:09:17.312Z,50.27
2019-02-05T17:11:46.627Z,50.53
2019-02-05T17:14:16.088Z,50.17
2019-02-05T17:16:45.828Z,52.87
2019-02-05T17:19:15.182Z,50.60
2019-02-05T17:21:44.452Z,49.27
2019-02-05T17:24:14.245Z,50.20
2019-02-05T17:26:44.616Z,54.47
2019-02-05T17:29:13.894Z,51.90
2019-02-05T17:31:43.590Z,50.90
2019-02-05T17:34:12.972Z,56.13
2019-02-05T17:36:42.418Z,50.27
2019-02-05T17:39:13.789Z,49.40
2019-02-05T17:41:43.189Z,47.30
2019-02-05T17:44:14.774Z,50.23
2019-02-05T17:46:45.271Z,52.23
2019-02-05T17:49:14.707Z,54.20
2019-02-05T17:51:44.146Z,53.97
2019-02-05T17:54:15.165Z,51.47
2019-02-05T17:56:44.772Z,51.97
2019-02-05T17:59:14.080Z,54.03
2019-02-05T18:01:43.895Z,50.17
2019-02-05T18:04:15.352Z,49.50
2019-02-05T18:06:44.807Z,49.20
2019-02-05T18:09:14.300Z,47.30
2019-02-05T18:11:43.706Z,48.70
2019-02-05T18:14:14.601Z,51.27
2019-02-05T18:16:45.373Z,50.87
2019-02-05T18:19:15.034Z,56.07
2019-02-05T18:21:45.152Z,55.93
2019-02-05T18:24:14.989Z,77.90
2019-02-05T18:26:44.418Z,54.03
2019-02-05T18:29:13.858Z,52.97
2019-02-05T18:31:43.870Z,50.90
2019-02-05T18:34:15.018Z,55.47
2019-02-05T18:36:44.546Z,54.97
2019-02-05T18:39:14.072Z,53.47
2019-02-05T18:41:43.511Z,56.10
2019-02-05T18:44:13.044Z,49.90
2019-02-05T18:46:42.529Z,49.17
2019-02-05T18:49:12.340Z,55.47
2019-02-05T18:51:43.983Z,58.67
2019-02-05T18:54:15.840Z,54.23
2019-02-05T18:56:45.535Z,59.47
2019-02-05T18:59:17.448Z,57.23
2019-02-05T19:01:50.632Z,55.87
2019-02-05T19:04:20.603Z,59.00
2019-02-05T19:06:51.799Z,54.50
2019-02-05T19:09:21.686Z,56.20
2019-02-05T19:11:51.843Z,55.80
2019-02-05T19:14:23.344Z,60.97
2019-02-05T19:16:53.669Z,61.30
2019-02-05T19:19:23.935Z,56.20
2019-02-05T19:21:54.428Z,58.63
2019-02-05T19:24:42.024Z,57.43
2019-02-05T19:27:14.129Z,60.07
2019-02-05T19:29:43.916Z,64.17
2019-02-05T19:32:15.511Z,60.50
2019-02-05T19:34:47.303Z,62.37
2019-02-05T19:37:19.008Z,63.33
2019-02-05T19:39:51.970Z,54.93
2019-02-05T19:42:23.903Z,54.77
2019-02-05T19:45:28.292Z,61.63
2019-02-05T19:48:01.057Z,60.50
2019-02-05T19:50:31.309Z,68.87
2019-02-05T19:53:01.638Z,70.90
2019-02-05T19:55:33.450Z,62.97
2019-02-05T19:58:04.085Z,64.97
2019-02-05T20:00:36.344Z,59.27
2019-02-05T20:03:08.134Z,59.73
2019-02-05T20:05:38.068Z,58.23
2019-02-05T20:08:09.254Z,58.53
2019-02-05T20:10:41.726Z,63.43
2019-02-05T20:13:12.000Z,66.10
2019-02-05T20:15:41.770Z,65.07
2019-02-05T20:18:13.150Z,65.37
2019-02-05T20:20:42.971Z,74.63
2019-02-05T20:23:15.829Z,75.57
2019-02-05T20:25:48.800Z,71.73
2019-02-05T20:28:19.048Z,69.10
2019-02-05T20:30:49.508Z,67.83
2019-02-05T20:33:24.301Z,65.37
2019-02-05T20:35:52.478Z,73.57
2019-02-05T20:38:22.570Z,60.63
2019-02-05T20:40:52.552Z,61.93
2019-02-05T20:43:24.444Z,66.10
2019-02-05T20:45:56.270Z,57.20
2019-02-05T20:48:29.533Z,61.63
2019-02-05T20:51:01.031Z,69.77
2019-02-05T20:53:29.898Z,75.43
2019-02-05T20:56:00.328Z,63.60
2019-02-05T20:58:30.100Z,55.50
2019-02-05T21:00:59.897Z,59.67
2019-02-05T21:03:30.011Z,55.27
2019-02-05T21:06:00.331Z,53.90
2019-02-05T21:08:30.094Z,56.40
2019-02-05T21:11:00.740Z,61.07
2019-02-05T21:13:30.173Z,65.87
2019-02-05T21:15:59.616Z,68.60
2019-02-05T21:18:29.548Z,67.77
2019-02-05T21:20:59.207Z,64.20
2019-02-05T21:23:28.648Z,67.90
2019-02-05T21:25:58.094Z,68.23
2019-02-05T21:28:30.086Z,70.67
2019-02-05T21:30:59.858Z,67.53
2019-02-05T21:33:29.275Z,65.43
2019-02-05T21:35:58.800Z,64.23
2019-02-05T21:38:28.242Z,63.77
2019-02-05T21:40:57.687Z,70.90
2019-02-05T21:43:27.093Z,70.00
2019-02-05T21:45:56.929Z,74.73
2019-02-05T21:48:26.573Z,70.60
2019-02-05T21:50:56.305Z,72.17
2019-02-05T21:53:25.699Z,58.50
2019-02-05T21:55:55.077Z,50.63
2019-02-05T21:58:24.421Z,47.90
2019-02-05T22:00:53.834Z,49.87
2019-02-05T22:03:23.698Z,54.20
2019-02-05T22:05:53.111Z,59.13
2019-02-05T22:08:22.558Z,54.30
2019-02-05T22:10:52.085Z,57.37
2019-02-05T22:13:21.895Z,51.40
2019-02-05T22:15:51.224Z,54.23
2019-02-05T22:18:20.640Z,50.43
2019-02-05T22:20:50.061Z,54.37
2019-02-05T22:23:19.872Z,53.97
2019-02-05T22:25:49.249Z,52.60
2019-02-05T22:28:20.937Z,52.20
2019-02-05T22:30:50.641Z,58.17
2019-02-05T22:33:20.046Z,58.63
2019-02-05T22:35:49.621Z,65.80
2019-02-05T22:38:18.953Z,65.60
2019-02-05T22:40:48.321Z,64.67
2019-02-05T22:43:17.830Z,58.43
2019-02-05T22:45:47.108Z,65.47
2019-02-05T22:48:16.404Z,69.97
2019-02-05T22:50:45.795Z,63.50
2019-02-05T22:53:15.056Z,63.27
2019-02-05T22:55:44.343Z,67.33
2019-02-05T22:58:13.621Z,71.70
2019-02-05T23:00:54.968Z,69.70
2019-02-05T23:03:28.028Z,65.27
2019-02-05T23:06:30.983Z,65.60
2019-02-05T23:09:14.403Z,65.30
2019-02-05T23:12:18.504Z,66.60
2019-02-05T23:14:51.508Z,67.30
2019-02-05T23:17:20.793Z,64.20
2019-02-05T23:19:50.036Z,60.33
2019-02-05T23:22:19.924Z,64.67
2019-02-05T23:24:49.196Z,70.43
2019-02-05T23:27:18.424Z,68.87
2019-02-05T23:29:47.627Z,72.93
2019-02-05T23:32:16.840Z,75.57
2019-02-05T23:34:46.030Z,71.03
2019-02-05T23:37:15.459Z,65.37
2019-02-05T23:39:44.727Z,61.87
2019-02-05T23:42:14.051Z,60.57
2019-02-05T23:44:43.617Z,65.20
2019-02-05T23:47:12.868Z,64.83
2019-02-05T23:49:42.192Z,59.73
2019-02-05T23:52:11.424Z,62.87
2019-02-05T23:54:40.780Z,62.80
2019-02-05T23:57:10.067Z,58.77
2019-02-05T23:59:39.812Z,59.87
